Create Tblcommutelog Verified Points Advance Search
| # | Trip ID | Id Commuter | Trip Date | Trip Num | Current Lat | Current Lng | Delta Distance | Current Time | Activity | Activity Confidence | Current Speed | |
|---|---|---|---|---|---|---|---|---|---|---|---|---|
| 73261 | 250402_780232_16421763_0800 | 780232 | (not set) | (not set) | 38.923117392682 | -77.232021747234 | 0.1552 | 2025-04-02 12:04:27.451 | on_foot | 100 | 0.66161810330183 | |
| 73262 | 250402_766012_6442693_0753 | 766012 | (not set) | (not set) | 38.801982112536 | -77.069367812146 | 1.107 | 2025-04-02 12:04:27.924 | in_vehicle | 100 | 7.3761477732975 | |
| 73263 | 250402_731669_16507744_0703 | 731669 | (not set) | (not set) | 38.793362168366 | -77.165309742961 | 27.2022 | 2025-04-02 12:04:28.158 | in_vehicle | 100 | 10.885405956351 | |
| 73264 | 250402_771996_16510196_0800 | 771996 | (not set) | (not set) | 38.899147756497 | -77.113017347186 | 1.0258 | 2025-04-02 12:04:31.264 | in_vehicle | 100 | 6.4194837590637 | |
| 73265 | 250402_769852_16513578_0759 | 769852 | (not set) | (not set) | 38.983924810856 | -77.094377009176 | 2.3595 | 2025-04-02 12:04:31.536 | in_vehicle | 100 | -0.44703925898772 | |
| 73266 | 250402_769852_16513578_0759 | 769852 | (not set) | (not set) | 38.98438644 | -77.09458923 | 2.3595 | 2025-04-02 12:04:32.113 | in_vehicle | 100 | -0.44703925898772 | |
| 73267 | 250402_783490_16491065_0758 | 783490 | (not set) | (not set) | 38.778578010895 | -77.180301820505 | 0.9819 | 2025-04-02 12:04:32.373 | in_vehicle | 100 | 6.1020858851824 | |
| 73268 | 250402_780813_16421763_0723 | 780813 | (not set) | (not set) | 38.774599904747 | -77.246986160372 | 3.3207 | 2025-04-02 12:04:33.234 | in_vehicle | 100 | 3.786422523626 | |
| 73269 | 250402_738572_16489587_0659 | 738572 | (not set) | (not set) | 38.889865519994 | -77.031921146591 | 23.247 | 2025-04-02 12:04:33.259 | in_vehicle | 100 | 4.515096515776 | |
| 73270 | 250402_781975_16497756_0756 | 781975 | (not set) | (not set) | 38.721710207942 | -77.207619618965 | 6.4589 | 2025-04-02 12:04:36.273 | in_vehicle | 100 | 14.345489820916 | |
| 73271 | 250402_781006_0_0802 | 781006 | (not set) | (not set) | 38.8828837 | -76.9846918 | 0.2282 | 2025-04-02 12:04:38.575 | on_bicycle | 100 | 2.2709594356576 | |
| 73272 | 250402_758537_16503613_0749 | 758537 | (not set) | (not set) | 38.923438396695 | -77.052062491254 | 0.6597 | 2025-04-02 12:04:40.202 | on_foot | 100 | 0.50962475524601 | |
| 73273 | 250402_775339_16505279_0728 | 775339 | (not set) | (not set) | 38.897325459483 | -77.096188194442 | 22.5888 | 2025-04-02 12:04:40.225 | in_vehicle | 100 | 12.816615555178 | |
| 73274 | 250402_107574_16500693_0705 | 107574 | (not set) | (not set) | 38.898043565964 | -77.00730895 | 13.1508 | 2025-04-02 12:04:41.157 | on_foot | 100 | -0.44703925898772 | |
| 73275 | 250402_731669_16507744_0703 | 731669 | (not set) | (not set) | 38.794115806449 | -77.161883266333 | 27.3943 | 2025-04-02 12:04:41.198 | in_vehicle | 100 | 10.223787853049 | |
| 73276 | 250402_780813_16421763_0723 | 780813 | (not set) | (not set) | 38.775311162449 | -77.245401501456 | 3.3207 | 2025-04-02 12:04:41.338 | in_vehicle | 100 | 6.6698257440968 | |
| 73277 | 250402_766012_6442693_0753 | 766012 | (not set) | (not set) | 38.803301132626 | -77.067670774273 | 1.2362 | 2025-04-02 12:04:41.356 | in_vehicle | 100 | 6.4597172923726 | |
| 73278 | 250402_769783_16441814_0752 | 769783 | (not set) | (not set) | 38.844535373751 | -76.987072888183 | 1.5176 | 2025-04-02 12:04:42.883 | in_vehicle | 100 | -0.44703925898772 | |
| 73279 | 250402_769783_16441814_0752 | 769783 | (not set) | (not set) | 38.844706730262 | -76.987588808855 | 2.2264 | 2025-04-02 12:04:43.319 | in_vehicle | 100 | -0.44703925898772 | |
| 73280 | 250402_777589_16507005_0728 | 777589 | (not set) | (not set) | 38.869608825559 | -77.053969224469 | 10.0573 | 2025-04-02 12:04:44.581 | still | 33 | -0.44703925898772 |